createdAt,value
2018-11-04T00:00:33.016Z,856.89
2018-11-04T00:01:33.018Z,856.90
2018-11-04T00:02:32.970Z,856.87
2018-11-04T00:03:32.933Z,856.91
2018-11-04T00:04:32.934Z,856.94
2018-11-04T00:05:32.977Z,856.93
2018-11-04T00:06:32.941Z,856.91
2018-11-04T00:07:32.890Z,856.90
2018-11-04T00:08:32.878Z,856.86
2018-11-04T00:09:32.871Z,856.85
2018-11-04T00:10:32.925Z,856.83
2018-11-04T00:11:32.890Z,856.84
2018-11-04T00:12:32.841Z,856.82
2018-11-04T00:13:32.827Z,856.84
2018-11-04T00:14:32.824Z,856.87
2018-11-04T00:15:32.868Z,856.90
2018-11-04T00:16:32.940Z,856.89
2018-11-04T00:17:32.782Z,856.86
2018-11-04T00:18:32.779Z,856.85
2018-11-04T00:19:32.772Z,856.87
2018-11-04T00:20:32.810Z,856.86
2018-11-04T00:21:32.775Z,856.88
2018-11-04T00:22:32.739Z,856.89
2018-11-04T00:23:32.754Z,856.90
2018-11-04T00:24:32.714Z,856.88
2018-11-04T00:25:32.753Z,856.87
2018-11-04T00:26:32.703Z,856.87
2018-11-04T00:27:32.713Z,856.87
2018-11-04T00:28:32.765Z,856.86
2018-11-04T00:29:33.044Z,856.89
2018-11-04T00:30:32.645Z,856.84
2018-11-04T00:31:32.646Z,856.82
2018-11-04T00:32:32.637Z,856.80
2018-11-04T00:33:32.641Z,856.81
2018-11-04T00:34:32.680Z,856.83
2018-11-04T00:35:32.590Z,856.88
2018-11-04T00:36:32.578Z,856.86
2018-11-04T00:37:32.581Z,856.87
2018-11-04T00:38:32.593Z,856.84
2018-11-04T00:39:32.597Z,856.82
2018-11-04T00:40:32.540Z,856.81
2018-11-04T00:41:32.527Z,856.73
2018-11-04T00:42:32.565Z,856.84
2018-11-04T00:43:32.557Z,856.84
2018-11-04T00:44:32.488Z,856.80
2018-11-04T00:45:32.616Z,856.83
2018-11-04T00:46:32.471Z,856.76
2018-11-04T00:47:32.514Z,856.76
2018-11-04T00:48:32.554Z,856.73
2018-11-04T00:49:32.453Z,856.76
2018-11-04T00:50:32.469Z,856.75
2018-11-04T00:51:32.422Z,856.78
2018-11-04T00:52:32.465Z,856.80
2018-11-04T00:53:32.393Z,856.83
2018-11-04T00:54:32.406Z,856.80
2018-11-04T00:55:32.429Z,856.77
2018-11-04T00:56:32.362Z,856.79
2018-11-04T00:57:32.407Z,856.74
2018-11-04T00:58:32.345Z,856.73
2018-11-04T00:59:32.388Z,856.66
2018-11-04T01:00:32.386Z,856.63
2018-11-04T01:01:32.333Z,856.62
2018-11-04T01:02:32.326Z,856.67
2018-11-04T01:03:32.292Z,856.61
2018-11-04T01:04:32.351Z,856.61
2018-11-04T01:05:32.299Z,856.57
2018-11-04T01:06:32.288Z,856.54
2018-11-04T01:07:32.244Z,856.53
2018-11-04T01:08:32.248Z,856.53
2018-11-04T01:09:32.285Z,856.53
2018-11-04T01:10:32.209Z,856.53
2018-11-04T01:11:32.244Z,856.56
2018-11-04T01:12:32.188Z,856.63
2018-11-04T01:13:32.180Z,856.68
2018-11-04T01:14:32.250Z,856.61
2018-11-04T01:15:32.158Z,856.61
2018-11-04T01:16:32.189Z,856.59
2018-11-04T01:17:32.137Z,856.62
2018-11-04T01:18:32.129Z,856.64
2018-11-04T01:19:32.194Z,856.63
2018-11-04T01:20:32.103Z,856.66
2018-11-04T01:21:32.146Z,856.66
2018-11-04T01:22:32.080Z,856.66
2018-11-04T01:23:32.080Z,856.68
2018-11-04T01:24:32.225Z,856.59
2018-11-04T01:25:32.049Z,856.60
2018-11-04T01:26:32.043Z,856.54
2018-11-04T01:27:32.038Z,856.52
2018-11-04T01:28:32.063Z,856.55
2018-11-04T01:29:32.062Z,856.57
2018-11-04T01:30:32.000Z,856.62
2018-11-04T01:31:31.985Z,856.53
2018-11-04T01:32:31.978Z,856.55
2018-11-04T01:33:31.963Z,856.50
2018-11-04T01:34:32.006Z,856.40
2018-11-04T01:35:32.524Z,856.39
2018-11-04T01:36:31.932Z,856.32
2018-11-04T01:37:31.921Z,856.29
2018-11-04T01:38:31.921Z,856.30
2018-11-04T01:39:31.897Z,856.26
2018-11-04T01:40:32.000Z,856.29
2018-11-04T01:41:31.873Z,856.25
2018-11-04T01:42:31.868Z,856.26
2018-11-04T01:43:31.854Z,856.21
2018-11-04T01:44:31.847Z,856.22
2018-11-04T01:45:31.931Z,856.15
2018-11-04T01:46:31.830Z,856.11
2018-11-04T01:47:31.811Z,856.15
2018-11-04T01:48:31.809Z,856.14
2018-11-04T01:49:31.789Z,856.08
2018-11-04T01:50:31.870Z,856.06
2018-11-04T01:51:31.772Z,856.11
2018-11-04T01:52:31.769Z,856.12
2018-11-04T01:53:31.750Z,856.08
2018-11-04T01:54:31.735Z,856.10
2018-11-04T01:55:31.832Z,856.05
2018-11-04T01:56:31.726Z,856.05
2018-11-04T01:57:31.869Z,856.09
2018-11-04T01:58:31.710Z,856.08
2018-11-04T01:59:31.688Z,856.10
2018-11-04T02:00:31.760Z,856.14
2018-11-04T02:01:31.985Z,856.15
2018-11-04T02:02:31.648Z,856.13
2018-11-04T02:03:31.644Z,856.15
2018-11-04T02:04:31.651Z,856.10
2018-11-04T02:05:31.651Z,856.11
2018-11-04T02:06:31.688Z,856.11
2018-11-04T02:07:31.592Z,856.09
2018-11-04T02:08:31.583Z,856.04
2018-11-04T02:09:31.587Z,856.02
2018-11-04T02:10:31.594Z,856.09
2018-11-04T02:11:31.604Z,856.09
2018-11-04T02:12:31.982Z,856.08
2018-11-04T02:13:31.532Z,856.11
2018-11-04T02:14:31.516Z,856.07
2018-11-04T02:15:31.565Z,856.03
2018-11-04T02:16:31.554Z,856.03
2018-11-04T02:17:31.550Z,856.06
2018-11-04T02:18:31.486Z,856.02
2018-11-04T02:19:31.494Z,856.09
2018-11-04T02:20:31.451Z,856.09
2018-11-04T02:21:31.461Z,856.10
2018-11-04T02:22:31.502Z,856.14
2018-11-04T02:23:31.430Z,856.09
2018-11-04T02:24:31.504Z,856.09
2018-11-04T02:25:31.433Z,856.07
2018-11-04T02:26:31.421Z,856.11
2018-11-04T02:27:31.388Z,856.12
2018-11-04T02:28:31.390Z,856.16
2018-11-04T02:29:31.443Z,856.13
2018-11-04T02:30:31.350Z,856.07
2018-11-04T02:31:31.337Z,856.03
2018-11-04T02:32:31.378Z,856.02
2018-11-04T02:33:31.315Z,856.00
2018-11-04T02:34:31.342Z,856.02
2018-11-04T02:35:31.384Z,856.01
2018-11-04T02:36:31.276Z,856.05
2018-11-04T02:37:31.273Z,856.00
2018-11-04T02:38:31.307Z,855.99
2018-11-04T02:39:31.257Z,855.99
2018-11-04T02:40:31.290Z,855.95
2018-11-04T02:41:31.227Z,855.95
2018-11-04T02:42:31.215Z,855.93
2018-11-04T02:43:31.256Z,855.90
2018-11-04T02:44:31.232Z,855.89
2018-11-04T02:45:31.237Z,855.83
2018-11-04T02:46:31.181Z,855.78
2018-11-04T02:47:31.164Z,855.78
2018-11-04T02:48:31.154Z,855.74
2018-11-04T02:49:31.225Z,855.76
2018-11-04T02:50:31.137Z,855.71
2018-11-04T02:51:31.126Z,855.73
2018-11-04T02:52:31.122Z,855.69
2018-11-04T02:53:31.098Z,855.68
2018-11-04T02:54:31.190Z,855.63
2018-11-04T02:55:31.078Z,855.62
2018-11-04T02:56:31.071Z,855.61
2018-11-04T02:57:31.060Z,855.61
2018-11-04T02:58:31.071Z,855.59
2018-11-04T02:59:31.126Z,855.59
2018-11-04T03:00:31.028Z,855.57
2018-11-04T03:01:31.017Z,855.58
2018-11-04T03:02:30.999Z,855.59
2018-11-04T03:03:30.989Z,855.60
2018-11-04T03:04:31.104Z,855.59
2018-11-04T03:05:30.973Z,855.59
2018-11-04T03:06:30.962Z,855.56
2018-11-04T03:07:30.949Z,855.54
2018-11-04T03:08:30.941Z,855.60
2018-11-04T03:09:30.985Z,855.55
2018-11-04T03:10:30.912Z,855.56
2018-11-04T03:11:30.918Z,855.52
2018-11-04T03:12:30.906Z,855.55
2018-11-04T03:13:30.888Z,855.51
2018-11-04T03:14:30.978Z,855.47
2018-11-04T03:15:30.862Z,855.46
2018-11-04T03:16:30.850Z,855.44
2018-11-04T03:17:30.879Z,855.50
2018-11-04T03:18:30.834Z,855.50
2018-11-04T03:19:30.892Z,855.53
2018-11-04T03:20:30.804Z,855.61
2018-11-04T03:21:30.800Z,855.61
2018-11-04T03:22:30.873Z,855.63
2018-11-04T03:23:30.778Z,855.65
2018-11-04T03:24:30.835Z,855.62
2018-11-04T03:25:30.771Z,855.60
2018-11-04T03:26:30.741Z,855.55
2018-11-04T03:27:30.765Z,855.54
2018-11-04T03:28:30.769Z,855.53
2018-11-04T03:29:30.722Z,855.59
2018-11-04T03:30:30.734Z,855.58
2018-11-04T03:31:30.740Z,855.58
2018-11-04T03:32:30.674Z,855.61
2018-11-04T03:33:30.723Z,855.58
2018-11-04T03:34:30.656Z,855.59
2018-11-04T03:35:30.686Z,855.61
2018-11-04T03:36:30.632Z,855.56
2018-11-04T03:37:30.630Z,855.54
2018-11-04T03:38:30.683Z,855.53
2018-11-04T03:39:30.605Z,855.49
2018-11-04T03:40:30.628Z,855.50
2018-11-04T03:41:30.629Z,855.45
2018-11-04T03:42:30.574Z,855.40
2018-11-04T03:43:30.558Z,855.37
2018-11-04T03:44:30.574Z,855.35
2018-11-04T03:45:30.568Z,855.30
2018-11-04T03:46:30.576Z,855.35
2018-11-04T03:47:30.554Z,855.35
2018-11-04T03:48:30.506Z,855.35
2018-11-04T03:49:30.521Z,855.35
2018-11-04T03:50:30.480Z,855.35
2018-11-04T03:51:30.530Z,855.31
2018-11-04T03:52:30.497Z,855.30
2018-11-04T03:53:30.501Z,855.24
2018-11-04T03:54:30.448Z,855.31
2018-11-04T03:55:30.482Z,855.29
2018-11-04T03:56:30.469Z,855.24
2018-11-04T03:57:30.411Z,855.25
2018-11-04T03:58:30.432Z,855.24
2018-11-04T03:59:30.388Z,855.22
2018-11-04T04:00:30.377Z,855.20
2018-11-04T04:01:30.452Z,855.22
2018-11-04T04:02:30.354Z,855.19
2018-11-04T04:03:30.383Z,855.21
2018-11-04T04:04:30.421Z,855.17
2018-11-04T04:05:30.327Z,855.16
2018-11-04T04:06:30.373Z,855.20
2018-11-04T04:07:30.321Z,855.24
2018-11-04T04:08:30.334Z,855.28
2018-11-04T04:09:30.278Z,855.26
2018-11-04T04:10:30.266Z,855.24
2018-11-04T04:11:30.332Z,855.24
2018-11-04T04:12:30.260Z,855.21
2018-11-04T04:13:30.292Z,855.17
2018-11-04T04:14:30.227Z,855.24
2018-11-04T04:15:30.218Z,855.18
2018-11-04T04:16:30.264Z,855.19
2018-11-04T04:17:30.192Z,855.22
2018-11-04T04:18:30.227Z,855.13
2018-11-04T04:19:30.199Z,855.16
2018-11-04T04:20:30.162Z,855.16
2018-11-04T04:21:30.205Z,855.16
2018-11-04T04:22:30.153Z,855.16
2018-11-04T04:23:30.164Z,855.20
2018-11-04T04:24:30.159Z,855.22
2018-11-04T04:25:30.132Z,855.19
2018-11-04T04:26:30.161Z,855.15
2018-11-04T04:27:30.088Z,855.15
2018-11-04T04:28:30.082Z,855.17
2018-11-04T04:29:30.096Z,855.17
2018-11-04T04:30:30.052Z,855.22
2018-11-04T04:31:30.120Z,855.20
2018-11-04T04:32:30.033Z,855.15
2018-11-04T04:33:30.027Z,855.16
2018-11-04T04:34:30.044Z,855.13
2018-11-04T04:35:30.008Z,855.05
2018-11-04T04:36:30.037Z,855.09
2018-11-04T04:37:29.993Z,855.09
2018-11-04T04:38:29.970Z,855.11
2018-11-04T04:39:30.050Z,855.12
2018-11-04T04:40:29.945Z,855.14
2018-11-04T04:41:29.935Z,855.18
2018-11-04T04:42:29.928Z,855.16
2018-11-04T04:43:29.928Z,855.15
2018-11-04T04:44:29.988Z,855.16
2018-11-04T04:45:29.927Z,855.11
2018-11-04T04:46:29.883Z,855.09
2018-11-04T04:47:29.869Z,855.10
2018-11-04T04:48:29.859Z,855.06
2018-11-04T04:49:29.953Z,855.06
2018-11-04T04:50:29.836Z,855.00
2018-11-04T04:51:29.838Z,855.00
2018-11-04T04:52:29.815Z,855.01
2018-11-04T04:53:29.813Z,854.97
2018-11-04T04:54:29.875Z,854.93
2018-11-04T04:55:29.829Z,854.92
2018-11-04T04:56:29.784Z,854.94
2018-11-04T04:57:29.764Z,854.91
2018-11-04T04:58:29.759Z,854.94
2018-11-04T04:59:29.840Z,854.94
2018-11-04T05:00:29.936Z,854.92
2018-11-04T05:01:29.745Z,854.92
2018-11-04T05:02:29.711Z,854.90
2018-11-04T05:03:29.700Z,854.89
2018-11-04T05:04:29.728Z,854.90
2018-11-04T05:05:29.734Z,854.96
2018-11-04T05:06:29.664Z,854.98
2018-11-04T05:07:29.681Z,854.99
2018-11-04T05:08:29.645Z,854.95
2018-11-04T05:09:29.668Z,854.93
2018-11-04T05:10:29.674Z,854.96
2018-11-04T05:11:29.647Z,854.92
2018-11-04T05:12:29.598Z,854.91
2018-11-04T05:13:29.616Z,854.92
2018-11-04T05:14:29.581Z,854.93
2018-11-04T05:15:29.616Z,854.92
2018-11-04T05:16:29.593Z,854.92
2018-11-04T05:17:29.548Z,854.89
2018-11-04T05:18:29.535Z,854.95
2018-11-04T05:19:29.531Z,854.98
2018-11-04T05:20:29.594Z,855.01
2018-11-04T05:21:29.539Z,855.02
2018-11-04T05:22:29.552Z,855.01
2018-11-04T05:23:29.516Z,854.99
2018-11-04T05:24:29.471Z,854.96
2018-11-04T05:25:29.485Z,854.92
2018-11-04T05:26:29.447Z,854.85
2018-11-04T05:27:29.494Z,854.84
2018-11-04T05:28:29.431Z,854.80
2018-11-04T05:29:29.460Z,854.83
2018-11-04T05:30:29.431Z,854.84
2018-11-04T05:31:29.395Z,854.84
2018-11-04T05:32:29.438Z,854.85
2018-11-04T05:33:29.389Z,854.83
2018-11-04T05:34:29.404Z,854.91
2018-11-04T05:35:29.355Z,854.89
2018-11-04T05:36:29.418Z,854.89
2018-11-04T05:37:29.329Z,854.91
2018-11-04T05:38:29.432Z,854.93
2018-11-04T05:39:29.351Z,854.90
2018-11-04T05:40:29.312Z,854.93
2018-11-04T05:41:29.288Z,854.88
2018-11-04T05:42:29.295Z,854.90
2018-11-04T05:43:29.317Z,854.90
2018-11-04T05:44:29.289Z,854.95
2018-11-04T05:45:29.243Z,854.97
2018-11-04T05:46:29.298Z,854.97
2018-11-04T05:47:29.227Z,854.96
2018-11-04T05:48:29.231Z,854.93
2018-11-04T05:49:29.233Z,854.99
2018-11-04T05:50:29.228Z,854.99
2018-11-04T05:51:29.235Z,854.98
2018-11-04T05:52:29.171Z,854.96
2018-11-04T05:53:29.162Z,854.89
2018-11-04T05:54:29.160Z,854.90
2018-11-04T05:55:29.173Z,854.93
2018-11-04T05:56:29.177Z,854.91
2018-11-04T05:57:33.829Z,854.96
2018-11-04T05:58:29.105Z,854.92
2018-11-04T05:59:29.095Z,854.96
2018-11-04T06:00:29.185Z,854.92
2018-11-04T06:01:29.426Z,854.86
2018-11-04T06:02:29.062Z,854.87
2018-11-04T06:03:29.054Z,854.82
2018-11-04T06:04:29.055Z,854.85
2018-11-04T06:05:29.116Z,854.85
2018-11-04T06:06:29.480Z,854.90
2018-11-04T06:07:29.026Z,854.95
2018-11-04T06:08:29.002Z,854.92
2018-11-04T06:09:28.991Z,854.90
2018-11-04T06:10:28.980Z,854.88
2018-11-04T06:11:29.036Z,854.95
2018-11-04T06:12:28.962Z,854.93
2018-11-04T06:13:28.952Z,854.93
2018-11-04T06:14:28.946Z,854.90
2018-11-04T06:15:28.922Z,854.94
2018-11-04T06:16:28.969Z,854.94
2018-11-04T06:17:28.940Z,854.96
2018-11-04T06:18:28.886Z,854.98
2018-11-04T06:19:28.943Z,855.00
2018-11-04T06:20:28.933Z,854.98
2018-11-04T06:21:28.860Z,855.04
2018-11-04T06:22:28.935Z,855.03
2018-11-04T06:23:28.839Z,855.04
2018-11-04T06:24:28.831Z,855.01
2018-11-04T06:25:28.820Z,855.01
2018-11-04T06:26:28.819Z,855.02
2018-11-04T06:27:28.898Z,854.98
2018-11-04T06:28:28.783Z,854.98
2018-11-04T06:29:28.773Z,855.02
2018-11-04T06:30:28.769Z,854.97
2018-11-04T06:31:28.751Z,854.98
2018-11-04T06:32:28.838Z,854.96
2018-11-04T06:33:28.772Z,854.96
2018-11-04T06:34:28.767Z,854.97
2018-11-04T06:35:28.712Z,855.02
2018-11-04T06:36:28.700Z,854.99
2018-11-04T06:37:28.737Z,855.04
2018-11-04T06:38:28.733Z,855.07
2018-11-04T06:39:28.665Z,855.07
2018-11-04T06:40:28.654Z,855.10
2018-11-04T06:41:28.679Z,855.02
2018-11-04T06:42:28.697Z,855.01
2018-11-04T06:43:28.623Z,855.05
2018-11-04T06:44:28.638Z,855.08
2018-11-04T06:45:28.601Z,855.15
2018-11-04T06:46:28.628Z,855.17
2018-11-04T06:47:28.691Z,855.14
2018-11-04T06:48:28.569Z,855.10
2018-11-04T06:49:28.555Z,855.03
2018-11-04T06:50:28.562Z,855.08
2018-11-04T06:51:28.571Z,855.03
2018-11-04T06:52:28.628Z,855.11
2018-11-04T06:53:28.520Z,855.07
2018-11-04T06:54:28.507Z,855.10
2018-11-04T06:55:28.501Z,855.02
2018-11-04T06:56:28.500Z,854.95
2018-11-04T06:57:28.562Z,854.98
2018-11-04T06:58:28.464Z,854.96
2018-11-04T06:59:28.448Z,854.94
2018-11-04T07:00:28.444Z,854.93
2018-11-04T07:01:28.448Z,854.94
2018-11-04T07:02:28.626Z,854.94
2018-11-04T07:03:28.419Z,854.86
2018-11-04T07:04:29.347Z,854.94
2018-11-04T07:05:28.393Z,854.94
2018-11-04T07:06:28.385Z,854.95
2018-11-04T07:07:28.539Z,854.96
2018-11-04T07:08:28.369Z,854.90
2018-11-04T07:09:28.442Z,854.92
2018-11-04T07:10:28.444Z,854.93
2018-11-04T07:11:28.405Z,854.91
2018-11-04T07:12:28.400Z,854.89
2018-11-04T07:13:28.317Z,854.91
2018-11-04T07:14:29.905Z,854.88
2018-11-04T07:15:28.952Z,854.88
2018-11-04T07:16:28.903Z,854.85
2018-11-04T07:17:28.297Z,854.91
2018-11-04T07:18:28.272Z,854.99
2018-11-04T07:19:28.295Z,855.04
2018-11-04T07:20:28.327Z,855.05
2018-11-04T07:21:28.269Z,854.99
2018-11-04T07:22:28.296Z,854.92
2018-11-04T07:23:28.232Z,854.81
2018-11-04T07:24:28.516Z,854.81
2018-11-04T07:25:28.247Z,854.75
2018-11-04T07:26:28.189Z,854.79
2018-11-04T07:27:28.178Z,854.80
2018-11-04T07:28:28.220Z,854.81
2018-11-04T07:29:28.430Z,854.90
2018-11-04T07:30:28.181Z,854.86
2018-11-04T07:31:28.116Z,854.85
2018-11-04T07:32:28.172Z,854.86
2018-11-04T07:33:28.083Z,854.92
2018-11-04T07:34:28.110Z,854.98
2018-11-04T07:35:28.159Z,854.89
2018-11-04T07:36:28.055Z,854.95
2018-11-04T07:37:28.890Z,854.98
2018-11-04T07:38:28.049Z,854.92
2018-11-04T07:39:28.036Z,854.96
2018-11-04T07:40:28.056Z,854.91
2018-11-04T07:41:28.394Z,854.88
2018-11-04T07:42:27.990Z,854.85
2018-11-04T07:43:27.979Z,854.89
2018-11-04T07:44:28.110Z,854.90
2018-11-04T07:45:27.946Z,854.95
2018-11-04T07:46:27.986Z,854.91
2018-11-04T07:47:27.962Z,854.89
2018-11-04T07:48:27.914Z,854.81
2018-11-04T07:49:27.904Z,854.83
2018-11-04T07:50:27.899Z,854.83
2018-11-04T07:51:27.974Z,854.74
2018-11-04T07:52:27.926Z,854.75
2018-11-04T07:53:27.863Z,854.75
2018-11-04T07:54:27.857Z,854.77
2018-11-04T07:55:27.868Z,854.81
2018-11-04T07:56:27.883Z,854.77
2018-11-04T07:57:27.879Z,854.78
2018-11-04T07:58:27.809Z,854.75
2018-11-04T07:59:27.802Z,854.72
2018-11-04T08:00:27.797Z,854.73
2018-11-04T08:01:27.845Z,854.69
2018-11-04T08:02:27.797Z,854.77
2018-11-04T08:03:27.880Z,854.77
2018-11-04T08:04:27.748Z,854.71
2018-11-04T08:05:27.736Z,854.69
2018-11-04T08:06:27.726Z,854.60
2018-11-04T08:07:27.729Z,854.62
2018-11-04T08:08:27.865Z,854.57
2018-11-04T08:09:27.694Z,854.61
2018-11-04T08:10:27.704Z,854.60
2018-11-04T08:11:27.682Z,854.63
2018-11-04T08:12:27.662Z,854.64
2018-11-04T08:13:27.826Z,854.59
2018-11-04T08:14:27.649Z,854.56
2018-11-04T08:15:27.623Z,854.59
2018-11-04T08:16:27.617Z,854.62
2018-11-04T08:17:27.696Z,854.57
2018-11-04T08:18:27.626Z,854.55
2018-11-04T08:19:27.632Z,854.55
2018-11-04T08:20:27.611Z,854.51
2018-11-04T08:21:28.478Z,854.55
2018-11-04T08:22:27.559Z,854.53
2018-11-04T08:23:27.591Z,854.49
2018-11-04T08:24:27.587Z,854.54
2018-11-04T08:25:27.523Z,854.52
2018-11-04T08:26:27.507Z,854.52
2018-11-04T08:27:27.543Z,854.48
2018-11-04T08:28:27.520Z,854.49
2018-11-04T08:29:27.554Z,854.46
2018-11-04T08:30:27.484Z,854.52
2018-11-04T08:31:27.468Z,854.47
2018-11-04T08:32:27.445Z,854.49
2018-11-04T08:33:27.465Z,854.46
2018-11-04T08:34:27.482Z,854.51
2018-11-04T08:35:27.935Z,854.49
2018-11-04T08:36:27.418Z,854.47
2018-11-04T08:37:27.390Z,854.43
2018-11-04T08:38:27.424Z,854.46
2018-11-04T08:39:27.386Z,854.54
2018-11-04T08:40:27.511Z,854.53
2018-11-04T08:41:27.347Z,854.52
2018-11-04T08:42:27.428Z,854.52
2018-11-04T08:43:27.362Z,854.45
2018-11-04T08:44:27.313Z,854.45
2018-11-04T08:45:27.358Z,854.43
2018-11-04T08:46:27.834Z,854.44
2018-11-04T08:47:27.409Z,854.45
2018-11-04T08:48:27.305Z,854.47
2018-11-04T08:49:27.256Z,854.44
2018-11-04T08:50:27.685Z,854.42
2018-11-04T08:51:27.233Z,854.38
2018-11-04T08:52:29.872Z,854.40
2018-11-04T08:53:27.591Z,854.41
2018-11-04T08:54:27.206Z,854.42
2018-11-04T08:55:27.401Z,854.36
2018-11-04T08:56:27.190Z,854.36
2018-11-04T08:57:27.179Z,854.36
2018-11-04T08:58:27.251Z,854.38
2018-11-04T08:59:27.167Z,854.37
2018-11-04T09:00:27.159Z,854.39
2018-11-04T09:01:27.127Z,854.38
2018-11-04T09:02:27.114Z,854.41
2018-11-04T09:03:27.212Z,854.44
2018-11-04T09:04:27.095Z,854.41
2018-11-04T09:05:27.089Z,854.41
2018-11-04T09:06:27.213Z,854.39
2018-11-04T09:07:27.063Z,854.41
2018-11-04T09:08:27.085Z,854.39
2018-11-04T09:09:27.113Z,854.36
2018-11-04T09:10:27.026Z,854.34
2018-11-04T09:11:27.081Z,854.36
2018-11-04T09:12:27.005Z,854.32
2018-11-04T09:13:27.028Z,854.27
2018-11-04T09:14:27.190Z,854.30
2018-11-04T09:15:27.379Z,854.28
2018-11-04T09:16:26.967Z,854.27
2018-11-04T09:17:26.958Z,854.21
2018-11-04T09:18:27.174Z,854.18
2018-11-04T09:19:27.427Z,854.25
2018-11-04T09:20:26.943Z,854.25
2018-11-04T09:21:27.524Z,854.26
2018-11-04T09:22:30.908Z,854.23
2018-11-04T09:23:28.864Z,854.32
2018-11-04T09:24:27.543Z,854.31
2018-11-04T09:25:26.949Z,854.22
2018-11-04T09:26:27.419Z,854.20
2018-11-04T09:27:26.880Z,854.24
2018-11-04T09:28:26.832Z,854.21
2018-11-04T09:29:26.843Z,854.23
2018-11-04T09:30:29.086Z,854.21
2018-11-04T09:31:26.938Z,854.19
2018-11-04T09:32:28.408Z,854.18
2018-11-04T09:33:26.922Z,854.19
2018-11-04T09:34:26.828Z,854.16
2018-11-04T09:35:27.026Z,854.20
2018-11-04T09:36:27.077Z,854.15
2018-11-04T09:37:26.845Z,854.12
2018-11-04T09:38:26.779Z,854.08
2018-11-04T09:39:26.776Z,854.09
2018-11-04T09:40:26.720Z,854.11
2018-11-04T09:41:26.962Z,854.14
2018-11-04T09:42:26.702Z,854.21
2018-11-04T09:43:26.692Z,854.16
2018-11-04T09:44:26.677Z,854.18
2018-11-04T09:45:26.697Z,854.17
2018-11-04T09:46:26.666Z,854.16
2018-11-04T09:47:26.691Z,854.22
2018-11-04T09:48:26.617Z,854.18
2018-11-04T09:49:26.616Z,854.16
2018-11-04T09:50:26.597Z,854.15
2018-11-04T09:51:26.662Z,854.09
2018-11-04T09:52:26.569Z,854.11
2018-11-04T09:53:27.622Z,854.05
2018-11-04T09:54:26.577Z,854.05
2018-11-04T09:55:26.542Z,853.99
2018-11-04T09:56:26.670Z,854.00
2018-11-04T09:57:26.524Z,853.94
2018-11-04T09:58:26.499Z,853.95
2018-11-04T09:59:26.574Z,853.94
2018-11-04T10:00:26.483Z,853.99
2018-11-04T10:01:26.523Z,854.04
2018-11-04T10:02:26.467Z,854.03
2018-11-04T10:03:26.460Z,854.04
2018-11-04T10:04:26.524Z,854.02
2018-11-04T10:05:26.432Z,854.02
2018-11-04T10:06:26.493Z,854.02
2018-11-04T10:07:26.411Z,854.04
2018-11-04T10:08:26.413Z,853.97
2018-11-04T10:09:26.442Z,853.97
2018-11-04T10:10:26.390Z,853.95
2018-11-04T10:11:26.428Z,853.99
2018-11-04T10:12:26.357Z,853.96
2018-11-04T10:13:26.427Z,854.00
2018-11-04T10:14:26.432Z,853.96
2018-11-04T10:15:26.365Z,854.00
2018-11-04T10:16:26.397Z,853.97
2018-11-04T11:21:11.955Z,853.26
2018-11-04T11:22:11.768Z,853.18
2018-11-04T11:23:11.847Z,853.14
2018-11-04T11:24:11.782Z,853.10
2018-11-04T11:25:11.746Z,853.10
2018-11-04T11:26:11.780Z,853.13
2018-11-04T11:27:11.728Z,853.14
2018-11-04T11:28:11.721Z,853.08
2018-11-04T11:29:11.703Z,853.05
2018-11-04T11:30:11.735Z,853.07
2018-11-04T11:31:11.725Z,853.01
2018-11-04T11:32:11.663Z,853.05
2018-11-04T11:33:11.706Z,853.06
2018-11-04T11:34:11.641Z,853.08
2018-11-04T11:35:11.629Z,853.10
2018-11-04T11:36:11.619Z,853.05
2018-11-04T11:37:11.635Z,853.01
2018-11-04T11:38:11.635Z,853.06
2018-11-04T11:39:11.736Z,853.07
2018-11-04T11:40:11.583Z,853.04
2018-11-04T11:41:11.577Z,853.01
2018-11-04T11:42:11.560Z,853.00
2018-11-04T11:43:11.578Z,852.94
2018-11-04T11:44:11.532Z,852.96
2018-11-04T11:45:11.555Z,852.98
2018-11-04T11:46:11.503Z,853.00
2018-11-04T11:47:11.491Z,853.00
2018-11-04T11:48:11.526Z,852.95
2018-11-04T11:49:11.723Z,852.97
2018-11-04T11:50:11.463Z,852.96
2018-11-04T11:51:11.466Z,852.96
2018-11-04T11:52:11.452Z,852.96
2018-11-04T11:53:11.478Z,853.00
2018-11-04T11:54:11.438Z,853.08
2018-11-04T11:55:11.416Z,853.01
2018-11-04T11:56:11.443Z,853.02
2018-11-04T11:57:18.504Z,853.00
2018-11-04T11:58:13.192Z,852.95
2018-11-04T11:59:12.205Z,853.00
2018-11-04T12:00:11.348Z,852.94
2018-11-04T12:01:12.212Z,852.93
2018-11-04T12:02:11.374Z,852.94
2018-11-04T12:03:11.323Z,852.89
2018-11-04T12:04:11.333Z,852.85
2018-11-04T12:05:11.295Z,852.86
2018-11-04T12:06:11.283Z,852.80
2018-11-04T12:07:11.306Z,852.79
2018-11-04T12:08:11.276Z,852.79
2018-11-04T12:09:11.244Z,852.74
2018-11-04T12:10:11.244Z,852.72
2018-11-04T12:11:11.300Z,852.68
2018-11-04T12:12:11.225Z,852.75
2018-11-04T12:13:11.228Z,852.76
2018-11-04T12:14:11.194Z,852.79
2018-11-04T12:15:11.315Z,852.78
2018-11-04T12:16:11.213Z,852.78
2018-11-04T12:17:11.167Z,852.82
2018-11-04T12:18:11.150Z,852.78
2018-11-04T12:19:11.158Z,852.77
2018-11-04T12:20:11.351Z,852.72
2018-11-04T12:21:11.187Z,852.69
2018-11-04T12:22:11.109Z,852.63
2018-11-04T12:23:11.116Z,852.62
2018-11-04T12:24:11.086Z,852.59
2018-11-04T12:25:11.148Z,852.61
2018-11-04T12:26:11.528Z,852.59
2018-11-04T12:27:11.080Z,852.50
2018-11-04T12:28:11.045Z,852.51
2018-11-04T12:29:11.895Z,852.44
2018-11-04T12:30:11.016Z,852.48
2018-11-04T12:31:11.003Z,852.47
2018-11-04T12:32:11.233Z,852.45
2018-11-04T12:33:10.985Z,852.44
2018-11-04T12:34:10.980Z,852.43
2018-11-04T12:35:11.017Z,852.42
2018-11-04T12:36:11.929Z,852.45
2018-11-04T12:37:10.987Z,852.46
2018-11-04T12:38:10.987Z,852.42
2018-11-04T12:39:10.922Z,852.46
2018-11-04T12:40:10.967Z,852.44
2018-11-04T12:41:10.931Z,852.43
2018-11-04T12:42:10.913Z,852.48
2018-11-04T12:43:10.914Z,852.47
2018-11-04T12:44:10.866Z,852.54
2018-11-04T12:45:10.883Z,852.45
2018-11-04T12:46:10.904Z,852.47
2018-11-04T12:47:10.913Z,852.40
2018-11-04T12:48:10.845Z,852.39
2018-11-04T12:49:10.866Z,852.38
2018-11-04T12:50:10.857Z,852.38
2018-11-04T12:51:10.839Z,852.39
2018-11-04T12:52:10.856Z,852.38
2018-11-04T12:53:10.762Z,852.38
2018-11-04T12:54:10.830Z,852.35
2018-11-04T12:55:10.749Z,852.42
2018-11-04T12:56:10.735Z,852.38
2018-11-04T12:57:10.714Z,852.41
2018-11-04T12:58:10.775Z,852.35
2018-11-04T12:59:10.722Z,852.33
2018-11-04T13:00:10.682Z,852.33
2018-11-04T13:01:10.726Z,852.22
2018-11-04T13:02:10.864Z,852.26
2018-11-04T13:03:10.719Z,852.28
2018-11-04T13:04:10.647Z,852.25
2018-11-04T13:05:10.683Z,852.26
2018-11-04T13:06:10.644Z,852.31
2018-11-04T13:07:10.624Z,852.29
2018-11-04T13:08:10.648Z,852.30
2018-11-04T13:09:10.595Z,852.32
2018-11-04T13:10:10.660Z,852.31
2018-11-04T13:11:10.588Z,852.28
2018-11-04T13:12:10.580Z,852.24
2018-11-04T13:13:10.609Z,852.23
2018-11-04T13:14:10.615Z,852.20
2018-11-04T13:15:10.614Z,852.22
2018-11-04T13:16:10.529Z,852.22
2018-11-04T13:17:10.541Z,852.27
2018-11-04T13:18:10.528Z,852.23
2018-11-04T13:19:10.513Z,852.17
2018-11-04T13:20:10.559Z,852.19
2018-11-04T13:21:10.485Z,852.11
2018-11-04T13:22:10.468Z,852.05
2018-11-04T13:23:10.465Z,852.03
2018-11-04T13:24:10.427Z,852.07
2018-11-04T13:25:10.471Z,852.06
2018-11-04T13:26:10.450Z,852.07
2018-11-04T13:27:10.542Z,852.17
2018-11-04T13:28:10.399Z,852.19
2018-11-04T13:29:10.359Z,852.14
2018-11-04T13:30:10.412Z,852.22
2018-11-04T13:31:10.432Z,852.19
2018-11-04T13:32:10.386Z,852.21